Aviation Digital Data Service (ADDS)

Output produced by METARs form (1641 UTC 30 October 2020)
found at http://www.aviationweather.gov/metar/data/
 
KAVL 301554Z 35011G19KT 10SM SCT037 12/04 A3013 RMK AO2 PK WND 32029/1457 SLP189 T01170039
KAVL 301131Z 3012/3112 34016G23KT P6SM SCT027 BKN035 
     TEMPO 3012/3014 OVC026 
     FM302300 34011KT P6SM SKC 
     FM310600 35006KT P6SM FEW030